Preview of NWS' New Version of Forecast
This preview is not operational and should not be used for support decisions.

Terminal Aerodrome Forecast (TAF)

Issued by National Weather Service (NWS)

                            
000
FTUS46 KSEW 150538
TAFBLI
TAF
KBLI 150538Z 1506/1606 16009G18KT P6SM -RA OVC030
     FM150800 16009KT 4SM -RA BR OVC020
     FM151400 16004KT 5SM -RA SCT008 OVC015
     FM152100 16007G15KT P6SM VCSH OVC015
     FM160400 16005KT P6SM VCSH OVC050=